createdAt,value
2022-10-02T00:01:20.285Z,9.81
2022-10-02T00:03:49.898Z,9.78
2022-10-02T00:06:23.181Z,9.62
2022-10-02T00:08:55.953Z,9.61
2022-10-02T00:11:28.181Z,9.11
2022-10-02T00:13:59.878Z,9.52
2022-10-02T00:16:35.297Z,9.60
2022-10-02T00:19:03.985Z,9.78
2022-10-02T00:21:42.003Z,9.71
2022-10-02T00:24:15.901Z,9.79
2022-10-02T00:26:53.851Z,9.85
2022-10-02T00:29:33.113Z,9.63
2022-10-02T00:32:16.417Z,9.70
2022-10-02T00:34:57.977Z,9.76
2022-10-02T00:37:36.712Z,9.75
2022-10-02T00:40:29.381Z,9.63
2022-10-02T00:43:11.088Z,9.71
2022-10-02T00:45:54.803Z,9.40
2022-10-02T00:48:40.008Z,9.53
2022-10-02T00:51:16.444Z,9.47
2022-10-02T00:53:54.929Z,9.58
2022-10-02T00:56:32.100Z,9.71
2022-10-02T00:59:20.031Z,9.76
2022-10-02T01:01:53.093Z,9.77
2022-10-02T01:04:29.862Z,9.38
2022-10-02T01:06:58.436Z,9.87
2022-10-02T01:09:28.748Z,9.83
2022-10-02T01:11:57.074Z,9.83
2022-10-02T01:14:33.311Z,9.89
2022-10-02T01:17:01.459Z,9.85
2022-10-02T01:19:38.176Z,9.64
2022-10-02T01:22:12.088Z,9.54
2022-10-02T01:24:48.514Z,9.76
2022-10-02T01:27:16.590Z,9.59
2022-10-02T01:29:46.983Z,9.59
2022-10-02T01:32:14.819Z,9.49
2022-10-02T01:34:43.549Z,8.70
2022-10-02T01:37:12.863Z,9.44
2022-10-02T01:39:41.643Z,9.51
2022-10-02T01:42:10.860Z,8.76
2022-10-02T01:44:39.226Z,9.71
2022-10-02T01:47:10.781Z,9.52
2022-10-02T01:49:57.195Z,9.80
2022-10-02T01:52:37.660Z,9.76
2022-10-02T01:55:21.658Z,10.67
2022-10-02T01:58:00.804Z,10.84
2022-10-02T02:00:39.571Z,10.92
2022-10-02T02:03:15.882Z,10.92
2022-10-02T02:05:50.778Z,10.93
2022-10-02T02:08:28.702Z,10.76
2022-10-02T02:11:10.514Z,10.68
2022-10-02T02:13:46.872Z,10.53
2022-10-02T02:16:22.811Z,10.87
2022-10-02T02:18:55.150Z,10.93
2022-10-02T02:21:28.862Z,11.14
2022-10-02T02:24:00.509Z,11.20
2022-10-02T02:26:29.963Z,11.02
2022-10-02T02:29:03.916Z,10.99
2022-10-02T02:31:38.664Z,11.21
2022-10-02T02:34:10.895Z,11.11
2022-10-02T02:36:42.496Z,11.20
2022-10-02T02:39:13.977Z,11.39
2022-10-02T02:41:46.927Z,10.99
2022-10-02T02:44:23.141Z,11.70
2022-10-02T02:47:05.144Z,11.61
2022-10-02T02:49:42.047Z,11.88
2022-10-02T02:52:15.021Z,11.66
2022-10-02T02:54:49.452Z,11.94
2022-10-02T02:57:21.421Z,11.67
2022-10-02T02:59:52.842Z,12.05
2022-10-02T03:02:20.772Z,12.11
2022-10-02T03:04:48.557Z,12.11
2022-10-02T03:07:18.545Z,12.21
2022-10-02T03:09:58.110Z,12.19
2022-10-02T03:12:39.700Z,11.99
2022-10-02T03:15:28.511Z,12.12
2022-10-02T03:18:11.827Z,12.13
2022-10-02T03:20:44.183Z,11.97
2022-10-02T03:23:18.943Z,12.05
2022-10-02T03:25:52.546Z,12.01
2022-10-02T03:28:50.526Z,12.18
2022-10-02T03:31:17.791Z,11.98
2022-10-02T03:33:47.493Z,11.91
2022-10-02T03:36:17.963Z,11.77
2022-10-02T03:38:56.860Z,11.53
2022-10-02T03:41:34.447Z,11.77
2022-10-02T03:44:03.058Z,11.86
2022-10-02T03:46:32.325Z,11.86
2022-10-02T03:49:00.349Z,11.88
2022-10-02T03:51:28.165Z,11.99
2022-10-02T03:53:56.017Z,11.78
2022-10-02T03:56:34.973Z,11.48
2022-10-02T03:59:13.625Z,11.79
2022-10-02T04:01:49.216Z,11.71
2022-10-02T04:04:24.548Z,11.64
2022-10-02T04:06:57.032Z,11.74
2022-10-02T04:09:30.976Z,11.70
2022-10-02T04:12:02.433Z,11.74
2022-10-02T04:14:38.632Z,11.87
2022-10-02T04:17:13.528Z,11.85
2022-10-02T04:19:47.413Z,11.67
2022-10-02T04:22:23.959Z,12.11
2022-10-02T04:24:56.406Z,11.59
2022-10-02T04:27:34.744Z,12.00
2022-10-02T04:30:06.096Z,11.98
2022-10-02T04:32:37.285Z,12.02
2022-10-02T04:35:13.640Z,11.99
2022-10-02T04:38:08.777Z,11.30
2022-10-02T04:40:50.610Z,11.95
2022-10-02T04:43:36.504Z,11.91
2022-10-02T04:46:14.915Z,11.88
2022-10-02T04:49:14.307Z,12.02
2022-10-02T04:51:57.127Z,11.95
2022-10-02T04:54:58.812Z,11.94
2022-10-02T04:57:51.982Z,11.88
2022-10-02T05:00:21.591Z,11.79
2022-10-02T05:03:04.969Z,11.68
2022-10-02T05:05:49.424Z,11.67
2022-10-02T05:08:31.542Z,11.55
2022-10-02T05:11:22.321Z,11.33
2022-10-02T05:14:03.269Z,11.29
2022-10-02T05:16:46.900Z,11.35
2022-10-02T05:19:48.431Z,11.41
2022-10-02T05:22:54.683Z,11.37
2022-10-02T05:25:39.246Z,11.33
2022-10-02T05:28:34.065Z,11.03
2022-10-02T05:31:10.390Z,11.11
2022-10-02T05:33:57.665Z,11.02
2022-10-02T05:36:41.466Z,11.07
2022-10-02T05:39:14.377Z,11.03
2022-10-02T05:41:50.991Z,11.05
2022-10-02T05:44:22.056Z,10.90
2022-10-02T05:46:58.101Z,11.09
2022-10-02T05:49:31.756Z,11.20
2022-10-02T05:52:04.052Z,11.29
2022-10-02T05:54:42.680Z,11.23
2022-10-02T05:57:19.387Z,11.33
2022-10-02T05:59:58.012Z,11.23
2022-10-02T06:02:39.051Z,11.39
2022-10-02T06:05:16.053Z,11.29
2022-10-02T06:07:48.204Z,10.76
2022-10-02T06:10:20.502Z,11.20
2022-10-02T06:12:56.700Z,11.15
2022-10-02T06:15:29.378Z,11.15
2022-10-02T06:18:01.109Z,11.15
2022-10-02T06:20:35.084Z,11.16
2022-10-02T06:23:08.516Z,11.12
2022-10-02T06:25:41.230Z,11.42
2022-10-02T06:28:15.825Z,11.65
2022-10-02T06:30:49.655Z,11.91
2022-10-02T06:33:22.193Z,12.00
2022-10-02T06:36:25.310Z,12.11
2022-10-02T06:39:13.757Z,12.25
2022-10-02T06:41:51.825Z,12.19
2022-10-02T06:44:28.205Z,12.23
2022-10-02T06:47:09.264Z,11.77
2022-10-02T06:49:54.604Z,12.24
2022-10-02T06:52:37.922Z,12.34
2022-10-02T06:55:25.063Z,12.36
2022-10-02T06:58:10.010Z,12.36
2022-10-02T07:00:47.881Z,12.85
2022-10-02T07:03:38.554Z,12.87
2022-10-02T07:06:17.151Z,12.88
2022-10-02T07:09:06.164Z,12.97
2022-10-02T07:11:44.549Z,13.08
2022-10-02T07:14:29.006Z,12.94
2022-10-02T07:17:24.087Z,13.08
2022-10-02T07:20:07.314Z,12.99
2022-10-02T07:22:50.969Z,13.07
2022-10-02T07:25:46.743Z,13.23
2022-10-02T07:28:21.222Z,13.15
2022-10-02T07:30:59.070Z,13.30
2022-10-02T07:33:45.900Z,13.39
2022-10-02T07:36:20.870Z,13.37
2022-10-02T07:39:11.414Z,13.36
2022-10-02T07:42:02.785Z,13.47
2022-10-02T07:44:43.967Z,13.35
2022-10-02T07:47:25.482Z,13.73
2022-10-02T07:49:59.608Z,13.65
2022-10-02T07:52:38.556Z,13.67
2022-10-02T07:55:16.035Z,13.72
2022-10-02T07:57:52.330Z,13.78
2022-10-02T08:00:24.100Z,13.79
2022-10-02T08:02:57.199Z,13.84
2022-10-02T08:05:31.192Z,13.74
2022-10-02T08:08:03.805Z,13.65
2022-10-02T08:10:37.827Z,13.73
2022-10-02T08:13:14.681Z,13.90
2022-10-02T08:15:45.548Z,13.85
2022-10-02T08:18:35.937Z,13.95
2022-10-02T08:21:13.178Z,14.07
2022-10-02T08:23:47.415Z,13.57
2022-10-02T08:26:22.941Z,14.52
2022-10-02T08:29:01.126Z,14.49
2022-10-02T08:31:29.283Z,14.65
2022-10-02T08:33:58.049Z,14.68
2022-10-02T08:36:48.058Z,14.74
2022-10-02T08:39:28.861Z,14.72
2022-10-02T08:42:34.113Z,14.76
2022-10-02T08:45:40.956Z,14.90
2022-10-02T08:48:49.666Z,14.98
2022-10-02T08:51:50.614Z,15.15
2022-10-02T08:54:46.894Z,14.92
2022-10-02T08:57:54.064Z,15.55
2022-10-02T09:00:26.086Z,15.61
2022-10-02T09:03:47.783Z,15.74
2022-10-02T09:07:04.295Z,15.70
2022-10-02T09:10:13.400Z,15.86
2022-10-02T09:13:08.840Z,15.85
2022-10-02T09:15:46.807Z,15.56
2022-10-02T09:18:23.533Z,15.46
2022-10-02T09:21:16.839Z,15.29
2022-10-02T09:24:17.610Z,15.21
2022-10-02T09:27:02.126Z,15.03
2022-10-02T09:30:11.454Z,15.10
2022-10-02T09:33:16.926Z,15.27
2022-10-02T09:36:23.979Z,15.31
2022-10-02T09:39:10.082Z,15.40
2022-10-02T09:42:17.096Z,15.44
2022-10-02T09:45:33.209Z,15.48
2022-10-02T09:48:33.881Z,15.20
2022-10-02T09:51:42.328Z,15.51
2022-10-02T09:54:48.942Z,15.51
2022-10-02T09:58:05.236Z,15.74
2022-10-02T10:00:57.204Z,15.96
2022-10-02T10:03:47.599Z,16.09
2022-10-02T10:06:25.984Z,15.99
2022-10-02T10:09:34.971Z,16.13
2022-10-02T10:12:56.514Z,16.09
2022-10-02T10:16:01.396Z,16.25
2022-10-02T10:18:48.755Z,15.98
2022-10-02T10:22:00.916Z,15.96
2022-10-02T10:25:18.762Z,15.91
2022-10-02T10:28:20.327Z,15.89
2022-10-02T10:31:29.927Z,15.85
2022-10-02T10:34:31.392Z,15.68
2022-10-02T10:37:20.021Z,15.33
2022-10-02T10:40:15.664Z,15.63
2022-10-02T10:43:42.496Z,15.67
2022-10-02T10:46:36.815Z,15.73
2022-10-02T10:49:38.664Z,15.90
2022-10-02T10:52:16.213Z,15.93
2022-10-02T10:54:56.909Z,15.85
2022-10-02T10:57:36.858Z,15.78
2022-10-02T11:00:26.464Z,15.79
2022-10-02T11:03:38.236Z,15.58
2022-10-02T11:06:40.129Z,15.53
2022-10-02T11:09:52.423Z,15.19
2022-10-02T11:13:05.064Z,15.03
2022-10-02T11:16:07.421Z,14.99
2022-10-02T11:18:55.870Z,14.75
2022-10-02T11:21:42.146Z,14.95
2022-10-02T11:24:24.855Z,14.75
2022-10-02T11:27:08.923Z,14.86
2022-10-02T11:30:03.398Z,14.63
2022-10-02T11:33:02.216Z,14.93
2022-10-02T11:35:38.174Z,15.01
2022-10-02T11:38:38.833Z,14.88
2022-10-02T11:41:24.050Z,14.82
2022-10-02T11:44:06.230Z,14.89
2022-10-02T11:46:58.273Z,15.14
2022-10-02T11:50:01.973Z,15.39
2022-10-02T11:53:08.945Z,15.52
2022-10-02T11:55:57.156Z,15.55
2022-10-02T11:58:41.865Z,15.41
2022-10-02T12:01:18.095Z,15.48
2022-10-02T12:04:16.529Z,15.55
2022-10-02T12:07:07.638Z,15.64
2022-10-02T12:09:48.283Z,15.96
2022-10-02T12:12:31.453Z,16.19
2022-10-02T12:15:07.121Z,16.25
2022-10-02T12:18:05.643Z,16.09
2022-10-02T12:21:08.089Z,16.20
2022-10-02T12:24:07.119Z,16.08
2022-10-02T12:27:02.662Z,16.15
2022-10-02T12:30:00.672Z,16.31
2022-10-02T12:32:42.152Z,16.58
2022-10-02T12:35:26.237Z,16.78
2022-10-02T12:38:02.587Z,16.74
2022-10-02T12:40:35.123Z,16.79
2022-10-02T12:43:20.660Z,16.71
2022-10-02T12:46:06.356Z,16.57
2022-10-02T12:48:58.271Z,16.49
2022-10-02T12:51:36.345Z,16.60
2022-10-02T12:54:33.308Z,16.59
2022-10-02T12:57:45.873Z,16.58
2022-10-02T13:00:16.432Z,16.44
2022-10-02T13:03:33.277Z,16.49
2022-10-02T13:06:55.216Z,16.31
2022-10-02T13:09:44.519Z,16.39
2022-10-02T13:12:23.854Z,16.34
2022-10-02T13:15:21.476Z,16.27
2022-10-02T13:17:58.277Z,16.31
2022-10-02T13:20:39.847Z,16.41
2022-10-02T13:23:21.851Z,16.30
2022-10-02T13:26:06.746Z,16.40
2022-10-02T13:29:31.439Z,16.36
2022-10-02T13:32:14.968Z,16.38
2022-10-02T13:35:01.412Z,16.49
2022-10-02T13:37:42.248Z,16.54
2022-10-02T13:40:25.378Z,16.67
2022-10-02T13:43:42.353Z,16.67
2022-10-02T13:46:22.621Z,16.80
2022-10-02T13:48:56.942Z,16.70
2022-10-02T13:51:32.724Z,16.78
2022-10-02T13:54:35.761Z,16.47
2022-10-02T13:57:10.867Z,15.62
2022-10-02T13:59:55.055Z,16.14
2022-10-02T14:02:39.961Z,15.61
2022-10-02T14:05:17.090Z,14.88
2022-10-02T14:08:11.712Z,14.43
2022-10-02T14:10:59.498Z,14.12
2022-10-02T14:13:40.566Z,14.09
2022-10-02T14:16:25.598Z,13.81
2022-10-02T14:19:13.644Z,13.83
2022-10-02T14:21:52.446Z,13.86
2022-10-02T14:25:04.199Z,13.26
2022-10-02T14:28:15.862Z,13.68
2022-10-02T14:30:57.802Z,13.81
2022-10-02T14:33:37.462Z,14.02
2022-10-02T14:36:12.090Z,14.02
2022-10-02T14:38:55.191Z,13.97
2022-10-02T14:41:40.845Z,13.89
2022-10-02T14:44:29.729Z,13.74
2022-10-02T14:47:13.305Z,14.11
2022-10-02T14:50:11.727Z,14.25
2022-10-02T14:52:53.707Z,14.31
2022-10-02T14:55:53.006Z,14.67
2022-10-02T14:58:31.120Z,14.80
2022-10-02T15:01:17.984Z,14.78
2022-10-02T15:04:04.851Z,14.73
2022-10-02T15:06:48.654Z,14.71
2022-10-02T15:09:23.533Z,14.72
2022-10-02T15:12:09.337Z,14.68
2022-10-02T15:14:43.845Z,14.62
2022-10-02T15:17:35.854Z,14.62
2022-10-02T15:20:13.285Z,14.56
2022-10-02T15:22:48.392Z,14.62
2022-10-02T15:25:18.549Z,14.55
2022-10-02T15:27:54.957Z,14.53
2022-10-02T15:30:26.793Z,14.41
2022-10-02T15:33:11.274Z,14.59
2022-10-02T15:35:54.175Z,14.59
2022-10-02T15:38:50.875Z,14.51
2022-10-02T15:41:43.085Z,14.55
2022-10-02T15:44:30.263Z,14.44
2022-10-02T15:47:09.735Z,14.54
2022-10-02T15:49:52.400Z,14.51
2022-10-02T15:52:35.710Z,14.33
2022-10-02T15:55:19.468Z,14.31
2022-10-02T15:58:04.300Z,14.47
2022-10-02T16:00:58.822Z,14.35
2022-10-02T16:03:35.534Z,14.51
2022-10-02T16:06:14.078Z,14.39
2022-10-02T16:09:10.166Z,14.38
2022-10-02T16:11:59.003Z,14.41
2022-10-02T16:14:41.028Z,14.33
2022-10-02T16:17:37.093Z,14.42
2022-10-02T16:20:23.640Z,14.28
2022-10-02T16:23:08.492Z,14.07
2022-10-02T16:26:03.205Z,14.30
2022-10-02T16:28:45.276Z,14.20
2022-10-02T16:31:37.389Z,14.24
2022-10-02T16:34:18.794Z,14.27
2022-10-02T16:36:52.698Z,14.09
2022-10-02T16:39:41.039Z,14.09
2022-10-02T16:42:22.164Z,14.02
2022-10-02T16:45:03.839Z,13.90
2022-10-02T16:47:44.895Z,13.26
2022-10-02T16:50:20.372Z,13.73
2022-10-02T16:52:53.996Z,13.46
2022-10-02T16:55:30.411Z,13.65
2022-10-02T16:58:11.021Z,13.71
2022-10-02T17:00:51.075Z,13.62
2022-10-02T17:03:28.405Z,13.61
2022-10-02T17:06:04.444Z,13.50
2022-10-02T17:08:39.342Z,13.32
2022-10-02T17:11:18.260Z,13.25
2022-10-02T17:13:55.961Z,13.20
2022-10-02T17:16:29.378Z,13.16
2022-10-02T17:18:59.359Z,13.16
2022-10-02T17:21:32.771Z,13.11
2022-10-02T17:24:32.234Z,12.99
2022-10-02T17:27:12.763Z,12.80
2022-10-02T17:29:51.514Z,12.53
2022-10-02T17:32:35.839Z,12.54
2022-10-02T17:35:11.773Z,12.49
2022-10-02T17:38:11.182Z,12.39
2022-10-02T17:40:46.183Z,12.21
2022-10-02T17:43:24.298Z,12.16
2022-10-02T17:46:05.436Z,12.04
2022-10-02T17:48:46.403Z,12.08
2022-10-02T17:51:52.504Z,12.02
2022-10-02T17:55:07.114Z,11.93
2022-10-02T17:57:52.492Z,11.86
2022-10-02T18:00:26.337Z,11.77
2022-10-02T18:03:26.393Z,11.77
2022-10-02T18:06:05.490Z,11.73
2022-10-02T18:09:06.655Z,11.73
2022-10-02T18:11:54.347Z,11.80
2022-10-02T18:14:36.046Z,11.95
2022-10-02T18:17:16.383Z,12.10
2022-10-02T18:19:55.187Z,12.15
2022-10-02T18:22:47.360Z,12.21
2022-10-02T18:25:34.819Z,11.95
2022-10-02T18:28:14.283Z,11.88
2022-10-02T18:30:50.116Z,12.32
2022-10-02T18:33:34.321Z,12.44
2022-10-02T18:36:22.858Z,12.45
2022-10-02T18:39:00.499Z,12.28
2022-10-02T18:41:43.153Z,12.34
2022-10-02T18:44:34.543Z,12.02
2022-10-02T18:47:14.577Z,12.38
2022-10-02T18:49:53.282Z,12.56
2022-10-02T18:52:47.249Z,12.67
2022-10-02T18:55:38.008Z,12.54
2022-10-02T18:58:21.415Z,12.40
2022-10-02T19:01:26.645Z,12.54
2022-10-02T19:04:16.620Z,12.54
2022-10-02T19:06:50.738Z,11.74
2022-10-02T19:09:27.052Z,11.20
2022-10-02T19:12:01.651Z,12.18
2022-10-02T19:14:36.159Z,12.11
2022-10-02T19:17:08.676Z,12.02
2022-10-02T19:19:36.908Z,11.94
2022-10-02T19:22:16.140Z,11.85
2022-10-02T19:24:46.447Z,11.87
2022-10-02T19:27:18.450Z,11.72
2022-10-02T19:29:54.359Z,11.33
2022-10-02T19:32:27.315Z,11.56
2022-10-02T19:35:03.807Z,11.58
2022-10-02T19:37:34.096Z,11.42
2022-10-02T19:40:03.904Z,11.51
2022-10-02T19:42:45.440Z,11.53
2022-10-02T19:45:25.486Z,11.53
2022-10-02T19:47:57.951Z,11.32
2022-10-02T19:50:35.892Z,11.09
2022-10-02T19:53:07.867Z,10.96
2022-10-02T19:55:40.593Z,10.85
2022-10-02T19:58:16.955Z,10.76
2022-10-02T20:00:44.865Z,10.63
2022-10-02T20:03:17.684Z,10.48
2022-10-02T20:05:49.169Z,10.69
2022-10-02T20:08:23.282Z,10.61
2022-10-02T20:11:00.257Z,10.64
2022-10-02T20:13:37.279Z,10.47
2022-10-02T20:16:31.478Z,10.62
2022-10-02T20:18:59.587Z,10.63
2022-10-02T20:21:37.067Z,10.71
2022-10-02T20:24:14.612Z,10.63
2022-10-02T20:26:45.026Z,10.51
2022-10-02T20:29:18.335Z,10.23
2022-10-02T20:31:50.968Z,10.17
2022-10-02T20:34:26.723Z,10.28
2022-10-02T20:37:05.344Z,10.34
2022-10-02T20:39:39.245Z,10.30
2022-10-02T20:42:14.681Z,10.22
2022-10-02T20:44:42.958Z,10.03
2022-10-02T20:47:40.745Z,10.15
2022-10-02T20:50:40.447Z,10.07
2022-10-02T20:53:38.565Z,10.10
2022-10-02T20:56:22.976Z,9.97
2022-10-02T20:59:31.588Z,10.07
2022-10-02T21:02:17.821Z,9.17
2022-10-02T21:05:18.456Z,10.10
2022-10-02T21:08:15.670Z,10.07
2022-10-02T21:11:09.711Z,9.97
2022-10-02T21:14:09.292Z,9.99
2022-10-02T21:17:07.667Z,9.94
2022-10-02T21:20:27.851Z,9.89
2022-10-02T21:23:23.555Z,9.97
2022-10-02T21:26:29.155Z,9.91
2022-10-02T21:29:17.372Z,9.86
2022-10-02T21:32:06.344Z,9.85
2022-10-02T21:34:47.244Z,9.74
2022-10-02T21:37:25.730Z,9.82
2022-10-02T21:40:27.226Z,9.72
2022-10-02T21:43:39.870Z,9.62
2022-10-02T21:46:42.305Z,9.58
2022-10-02T21:49:50.890Z,9.50
2022-10-02T21:52:55.335Z,9.58
2022-10-02T21:55:51.506Z,9.54
2022-10-02T21:58:44.846Z,9.78
2022-10-02T22:01:36.348Z,9.66
2022-10-02T22:04:38.203Z,9.61
2022-10-02T22:07:12.132Z,9.52
2022-10-02T22:09:53.383Z,9.60
2022-10-02T22:12:38.440Z,9.59
2022-10-02T22:15:15.991Z,9.58
2022-10-02T22:17:58.977Z,9.46
2022-10-02T22:20:44.293Z,9.37
2022-10-02T22:23:30.233Z,9.32
2022-10-02T22:26:12.501Z,9.44
2022-10-02T22:28:45.414Z,9.39
2022-10-02T22:31:40.267Z,9.41
2022-10-02T22:34:22.366Z,9.08
2022-10-02T22:37:14.899Z,9.16
2022-10-02T22:39:47.961Z,9.14
2022-10-02T22:42:24.534Z,9.21
2022-10-02T22:44:58.041Z,9.28
2022-10-02T22:47:36.999Z,9.14
2022-10-02T22:50:11.421Z,9.19
2022-10-02T22:52:49.041Z,9.13
2022-10-02T22:55:23.093Z,9.16
2022-10-02T22:57:58.870Z,8.99
2022-10-02T23:00:31.833Z,9.12
2022-10-02T23:03:08.372Z,9.14
2022-10-02T23:05:43.249Z,9.15
2022-10-02T23:08:32.959Z,9.04
2022-10-02T23:11:09.439Z,9.15
2022-10-02T23:13:45.889Z,9.26
2022-10-02T23:16:21.204Z,9.21
2022-10-02T23:18:55.307Z,8.70
2022-10-02T23:21:30.267Z,9.30
2022-10-02T23:24:08.189Z,9.17
2022-10-02T23:26:40.322Z,9.66
2022-10-02T23:29:19.954Z,9.93
2022-10-02T23:31:55.396Z,10.18
2022-10-02T23:34:41.031Z,10.16
2022-10-02T23:37:18.454Z,10.24
2022-10-02T23:39:55.078Z,10.34
2022-10-02T23:42:28.856Z,10.36
2022-10-02T23:45:04.246Z,10.48
2022-10-02T23:47:45.575Z,10.76
2022-10-02T23:50:22.761Z,10.78
2022-10-02T23:53:03.859Z,10.72
2022-10-02T23:56:01.439Z,10.59
2022-10-02T23:58:50.839Z,10.56
